Time;durP1;ratioP1;P1;durP2;ratioP2;P2;SDS_P1;SDS_P2;PMS_P1;PMS_P2;Temp;Humidity;BMP_temperature;BMP_pressure;BME280_temperature;BME280_humidity;BME280_pressure;Samples;Min_cycle;Max_cycle;Signal;HPM_P1;HPM_P2
2023/01/28 00:00:56;;;;;;;9.55;7.70;;;;;;;;;;4950737;28;20093;-66
2023/01/28 00:03:22;;;;;;;9.30;7.15;;;;;;;;;;4969712;28;20043;-66
2023/01/28 00:05:48;;;;;;;8.75;7.18;;;;;;;;;;4936122;28;20763;-66
2023/01/28 00:08:14;;;;;;;7.40;6.53;;;;;;;;;;4966933;28;20051;-66
2023/01/28 00:10:41;;;;;;;9.98;7.70;;;;;;;;;;4967355;28;20501;-66
2023/01/28 00:13:07;;;;;;;9.30;7.45;;;;;;;;;;4952112;28;20104;-66
2023/01/28 00:15:33;;;;;;;7.90;6.72;;;;;;;;;;4969821;28;20042;-66
2023/01/28 00:17:59;;;;;;;9.48;6.50;;;;;;;;;;4950157;28;20054;-66
2023/01/28 00:20:25;;;;;;;7.85;6.75;;;;;;;;;;4950339;28;20449;-66
2023/01/28 00:22:51;;;;;;;9.07;7.10;;;;;;;;;;4969120;28;20047;-66
2023/01/28 00:25:18;;;;;;;8.50;6.97;;;;;;;;;;4969675;28;20046;-66
2023/01/28 00:27:44;;;;;;;8.88;6.78;;;;;;;;;;4969443;28;20050;-66
2023/01/28 00:30:11;;;;;;;9.35;6.30;;;;;;;;;;4951810;28;20618;-66
2023/01/28 00:32:36;;;;;;;11.63;7.20;;;;;;;;;;4951522;28;20150;-66
2023/01/28 00:35:02;;;;;;;9.00;7.03;;;;;;;;;;4968200;28;20074;-66
2023/01/28 00:37:28;;;;;;;10.23;7.85;;;2.80;99.90;;;;;;4952108;28;20042;-66
2023/01/28 00:39:54;;;;;;;11.00;6.85;;;;;;;;;;4950896;28;20439;-66
2023/01/28 00:42:20;;;;;;;7.90;6.63;;;;;;;;;;4969077;28;20043;-66
2023/01/28 00:44:46;;;;;;;8.95;7.07;;;;;;;;;;4950848;28;20043;-66
2023/01/28 00:47:12;;;;;;;10.30;8.13;;;;;;;;;;4968460;28;20129;-66
2023/01/28 00:49:38;;;;;;;9.27;8.00;;;;;;;;;;4950792;28;20128;-66
2023/01/28 00:52:04;;;;;;;9.95;7.72;;;;;;;;;;4951248;28;20496;-66
2023/01/28 00:54:31;;;;;;;9.85;7.55;;;;;;;;;;4968223;28;20587;-66
2023/01/28 00:56:57;;;;;;;9.00;7.45;;;;;;;;;;4967274;28;20049;-66
2023/01/28 00:59:23;;;;;;;9.52;7.38;;;;;;;;;;4966138;28;20038;-66
2023/01/28 01:01:49;;;;;;;9.25;7.35;;;;;;;;;;4968250;28;20054;-66
2023/01/28 01:04:25;;;;;;;9.73;7.47;;;;;;;;;;4968338;28;20142;-66
2023/01/28 01:06:51;;;;;;;11.18;7.32;;;;;;;;;;4951235;28;20500;-66
2023/01/28 01:09:17;;;;;;;8.38;7.03;;;;;;;;;;4968448;28;20109;-66
2023/01/28 01:11:43;;;;;;;9.57;7.93;;;;;;;;;;4968654;28;20043;-66
2023/01/28 01:14:09;;;;;;;9.63;7.47;;;;;;;;;;4968056;28;20046;-66
2023/01/28 01:16:37;;;;;;;8.50;6.47;;;;;;;;;;4968526;28;20121;-66
2023/01/28 01:19:03;;;;;;;9.98;7.28;;;;;;;;;;4951493;28;20050;-66
2023/01/28 01:21:30;;;;;;;12.23;8.13;;;;;;;;;;4950558;28;20393;-66
2023/01/28 01:23:56;;;;;;;8.52;6.68;;;;;;;;;;4950558;28;20117;-66
2023/01/28 01:26:22;;;;;;;10.15;7.20;;;;;;;;;;4968241;28;20072;-66
2023/01/28 01:28:50;;;;;;;9.82;7.45;;;2.50;99.90;;;;;;4947359;28;20039;-66
2023/01/28 01:31:17;;;;;;;11.52;8.30;;;;;;;;;;4948999;28;20053;-66
2023/01/28 01:33:44;;;;;;;10.80;8.35;;;;;;;;;;4967891;28;20054;-66
2023/01/28 01:36:11;;;;;;;9.95;7.93;;;;;;;;;;4968134;28;20050;-66
2023/01/28 01:38:37;;;;;;;11.63;8.80;;;;;;;;;;4950179;28;20042;-66
2023/01/28 01:41:04;;;;;;;8.93;7.30;;;;;;;;;;4967478;28;20042;-66
2023/01/28 01:43:47;;;;;;;9.25;7.60;;;2.80;99.90;;;;;;4934014;28;20087;-66
2023/01/28 01:46:15;;;;;;;12.50;9.00;;;;;;;;;;4963365;28;20776;-66
2023/01/28 01:48:41;;;;;;;10.98;8.23;;;;;;;;;;4950098;28;20054;-66
2023/01/28 01:51:09;;;;;;;9.80;8.02;;;;;;;;;;4949132;28;20575;-66
2023/01/28 01:53:36;;;;;;;11.07;7.78;;;;;;;;;;4967885;28;20042;-66
2023/01/28 01:56:04;;;;;;;9.68;7.90;;;;;;;;;;4966731;28;20601;-66
2023/01/28 01:58:33;;;;;;;11.18;8.65;;;;;;;;;;4967049;28;20060;-66
2023/01/28 02:00:59;;;;;;;9.73;7.60;;;;;;;;;;4967175;28;20047;-66
2023/01/28 02:03:31;;;;;;;9.93;8.15;;;;;;;;;;4948881;28;20126;-66
2023/01/28 02:05:57;;;;;;;10.68;8.32;;;;;;;;;;4967233;28;20109;-66
2023/01/28 02:08:24;;;;;;;12.57;8.38;;;;;;;;;;4949378;28;20042;-66
2023/01/28 02:11:04;;;;;;;11.88;9.25;;;2.70;99.90;;;;;;4967583;28;20054;-66
2023/01/28 02:13:33;;;;;;;15.55;10.35;;;;;;;;;;4947905;28;20126;-66
2023/01/28 02:16:00;;;;;;;12.43;9.40;;;;;;;;;;4967433;28;20054;-66
2023/01/28 02:18:26;;;;;;;13.10;9.32;;;;;;;;;;4947105;28;20047;-66
2023/01/28 02:20:52;;;;;;;11.57;8.98;;;;;;;;;;4965090;28;20101;-66
2023/01/28 02:23:34;;;;;;;11.45;8.80;;;;;;;;;;4949103;28;20046;-66
2023/01/28 02:26:03;;;;;;;14.38;9.45;;;;;;;;;;4961500;28;20114;-66
2023/01/28 02:28:36;;;;;;;12.85;9.80;;;;;;;;;;4946984;28;20072;-66
2023/01/28 02:31:07;;;;;;;14.65;8.85;;;;;;;;;;4966029;28;20116;-66
2023/01/28 02:33:37;;;;;;;12.88;9.85;;;;;;;;;;4949765;28;20109;-66
2023/01/28 02:36:24;;;;;;;12.13;9.25;;;;;;;;;;4949507;28;20404;-66
2023/01/28 02:38:52;;;;;;;14.05;9.25;;;3.00;99.90;;;;;;4964136;28;20085;-66
2023/01/28 02:41:22;;;;;;;13.73;9.18;;;;;;;;;;4949293;28;20050;-66
2023/01/28 02:43:47;;;;;;;12.05;9.57;;;;;;;;;;4961906;28;20528;-66
2023/01/28 02:49:29;;;;;;;14.27;10.50;;;;;;;;;;4949367;28;20918;-67
2023/01/28 02:52:01;;;;;;;12.23;8.50;;;;;;;;;;4948768;28;20055;-66
2023/01/28 02:54:46;;;;;;;11.85;8.85;;;;;;;;;;4967363;28;20065;-66
2023/01/28 02:57:12;;;;;;;11.47;8.37;;;;;;;;;;4949455;28;20144;-66
2023/01/28 02:59:41;;;;;;;10.32;8.20;;;;;;;;;;4950047;28;20078;-66
2023/01/28 03:02:19;;;;;;;11.13;8.68;;;;;;;;;;4947761;28;20051;-66
2023/01/28 03:05:05;;;;;;;9.20;7.85;;;;;;;;;;4966054;28;20461;-66
2023/01/28 03:07:33;;;;;;;10.90;7.53;;;;;;;;;;4948149;28;20180;-66
2023/01/28 03:10:03;;;;;;;11.35;8.90;;;;;;;;;;4945700;28;20536;-66
2023/01/28 03:37:37;;;;;;;11.57;8.50;;;;;;;;;;4949567;28;20082;-66
2023/01/28 03:40:07;;;;;;;11.55;8.52;;;2.70;99.90;;;;;;4949250;28;20632;-66
2023/01/28 03:42:33;;;;;;;11.70;8.77;;;;;;;;;;4948931;28;20043;-66
2023/01/28 03:45:02;;;;;;;11.35;8.65;;;;;;;;;;4949842;28;20058;-66
2023/01/28 03:47:29;;;;;;;9.88;7.65;;;;;;;;;;4948240;28;20572;-65
2023/01/28 03:49:58;;;;;;;12.85;9.50;;;;;;;;;;4964122;28;20409;-66
2023/01/28 03:52:25;;;;;;;11.23;8.77;;;;;;;;;;4966773;28;20062;-66
2023/01/28 03:54:51;;;;;;;10.57;7.80;;;;;;;;;;4950029;28;20094;-66
2023/01/28 03:57:22;;;;;;;12.13;8.98;;;;;;;;;;4934008;28;20514;-66
2023/01/28 03:59:48;;;;;;;11.75;8.95;;;;;;;;;;4952712;28;20039;-66
2023/01/28 04:02:15;;;;;;;12.25;8.80;;;;;;;;;;4952682;28;20528;-66
2023/01/28 04:04:41;;;;;;;13.63;9.05;;;;;;;;;;4970296;28;20065;-65
2023/01/28 04:07:09;;;;;;;12.77;9.50;;;;;;;;;;4952405;28;20054;-66
2023/01/28 04:09:35;;;;;;;11.15;8.27;;;;;;;;;;4936800;28;20527;-66
2023/01/28 04:12:02;;;;;;;12.13;8.90;;;;;;;;;;4970195;28;20054;-66
2023/01/28 04:14:27;;;;;;;10.77;8.35;;;2.70;99.90;;;;;;4970209;28;20051;-66
2023/01/28 04:16:53;;;;;;;13.25;8.13;;;;;;;;;;4970037;28;20042;-66
2023/01/28 04:19:19;;;;;;;12.50;9.20;;;;;;;;;;4969998;28;20508;-66
2023/01/28 04:21:47;;;;;;;12.25;8.65;;;;;;;;;;4969731;28;20034;-66
2023/01/28 04:24:14;;;;;;;11.65;8.23;;;;;;;;;;4969780;28;20041;-66
2023/01/28 04:26:39;;;;;;;12.18;8.77;;;;;;;;;;4951989;28;20130;-66
2023/01/28 04:29:06;;;;;;;13.00;8.40;;;;;;;;;;4969292;28;20129;-66
2023/01/28 04:31:32;;;;;;;12.57;8.30;;;;;;;;;;4951945;28;20547;-66
2023/01/28 04:33:58;;;;;;;12.60;8.32;;;;;;;;;;4951577;28;20062;-66
2023/01/28 04:36:25;;;;;;;10.70;7.85;;;;;;;;;;4951237;28;20058;-66
2023/01/28 04:38:51;;;;;;;11.82;8.00;;;;;;;;;;4965216;28;20129;-66
2023/01/28 04:41:17;;;;;;;10.77;8.07;;;;;;;;;;4963054;28;20043;-66
2023/01/28 04:43:43;;;;;;;10.60;7.68;;;;;;;;;;4951620;28;20560;-66
2023/01/28 04:46:09;;;;;;;11.43;7.75;;;;;;;;;;4966173;28;20046;-66
2023/01/28 04:48:35;;;;;;;10.05;7.30;;;;;;;;;;4950811;28;20110;-66
2023/01/28 04:51:02;;;;;;;10.18;7.70;;;;;;;;;;4951430;28;20089;-66
2023/01/28 04:53:28;;;;;;;12.75;8.23;;;;;;;;;;4934784;28;20050;-66
2023/01/28 04:55:54;;;;;;;12.48;8.02;;;;;;;;;;4950672;28;20058;-66
2023/01/28 04:58:19;;;;;;;9.93;7.30;;;;;;;;;;4951110;28;20046;-66
2023/01/28 05:00:45;;;;;;;8.85;7.10;;;;;;;;;;4950556;28;20764;-66
2023/01/28 05:03:11;;;;;;;9.73;7.85;;;;;;;;;;4968944;28;20098;-66
2023/01/28 05:05:37;;;;;;;10.63;8.10;;;;;;;;;;4966152;28;20059;-66
2023/01/28 05:08:03;;;;;;;10.02;8.18;;;;;;;;;;4951230;28;20181;-66
2023/01/28 05:10:29;;;;;;;11.52;8.73;;;;;;;;;;4961028;28;20100;-65
2023/01/28 05:12:55;;;;;;;10.52;7.90;;;;;;;;;;4964162;28;20043;-65
2023/01/28 05:15:22;;;;;;;10.15;7.70;;;;;;;;;;4950250;28;20054;-64
2023/01/28 05:17:47;;;;;;;10.43;7.25;;;;;;;;;;4950247;28;20412;-62
2023/01/28 05:20:14;;;;;;;10.55;8.20;;;;;;;;;;4935523;28;20047;-63
2023/01/28 05:22:40;;;;;;;9.63;7.68;;;;;;;;;;4950792;28;20038;-65
2023/01/28 05:25:06;;;;;;;10.75;7.93;;;;;;;;;;4949677;28;20498;-64
2023/01/28 05:27:33;;;;;;;10.07;6.95;;;;;;;;;;4966916;28;20042;-65
2023/01/28 05:29:59;;;;;;;13.23;8.27;;;;;;;;;;4947815;28;20560;-64
2023/01/28 05:32:25;;;;;;;11.23;8.05;;;;;;;;;;4949998;28;20548;-65
2023/01/28 05:34:51;;;;;;;10.75;8.20;;;;;;;;;;4950024;28;20085;-64
2023/01/28 05:37:17;;;;;;;14.95;8.70;;;;;;;;;;4965662;28;20141;-63
2023/01/28 05:39:43;;;;;;;10.68;8.15;;;;;;;;;;4947224;28;20824;-63
2023/01/28 05:42:09;;;;;;;11.27;8.07;;;;;;;;;;4967128;28;20035;-62
2023/01/28 05:44:36;;;;;;;9.80;7.78;;;;;;;;;;4948305;28;20133;-65
2023/01/28 05:47:02;;;;;;;12.63;8.38;;;;;;;;;;4948494;28;20051;-64
2023/01/28 05:49:28;;;;;;;11.60;8.43;;;;;;;;;;4963884;28;20613;-65
2023/01/28 05:51:55;;;;;;;12.98;7.47;;;;;;;;;;4948458;28;20046;-65
2023/01/28 05:54:21;;;;;;;11.02;8.57;;;;;;;;;;4949079;28;20043;-64
2023/01/28 05:56:47;;;;;;;12.15;8.05;;;;;;;;;;4966893;28;20457;-64
2023/01/28 05:59:13;;;;;;;11.13;8.27;;;2.30;99.90;;;;;;4949355;28;20440;-65
2023/01/28 06:01:39;;;;;;;12.60;7.75;;;;;;;;;;4948784;28;20045;-65
2023/01/28 06:04:05;;;;;;;10.82;7.90;;;;;;;;;;4948755;28;20047;-66
2023/01/28 06:06:31;;;;;;;10.68;8.10;;;;;;;;;;4948483;28;20093;-65
2023/01/28 06:08:57;;;;;;;11.27;7.65;;;;;;;;;;4948705;28;20077;-65
2023/01/28 06:11:23;;;;;;;10.43;8.18;;;;;;;;;;4949196;28;20411;-65
2023/01/28 06:13:49;;;;;;;10.02;7.40;;;;;;;;;;4966497;28;20049;-65
2023/01/28 06:16:15;;;;;;;11.40;7.80;;;;;;;;;;4965300;28;20050;-65
2023/01/28 06:18:41;;;;;;;9.73;7.55;;;;;;;;;;4945226;28;20057;-67
2023/01/28 06:21:07;;;;;;;13.00;8.15;;;;;;;;;;4946090;28;20413;-65
2023/01/28 06:23:33;;;;;;;10.23;7.68;;;;;;;;;;4966145;28;20500;-65
2023/01/28 06:25:59;;;;;;;10.05;7.88;;;;;;;;;;4948929;28;20086;-63
2023/01/28 06:28:25;;;;;;;12.90;8.45;;;;;;;;;;4962946;28;20386;-65
2023/01/28 06:30:52;;;;;;;12.35;8.43;;;;;;;;;;4964452;28;20102;-65
2023/01/28 06:33:18;;;;;;;12.20;7.82;;;;;;;;;;4966106;28;20106;-64
2023/01/28 06:35:44;;;;;;;14.35;8.02;;;;;;;;;;4965857;28;20130;-64
2023/01/28 06:38:11;;;;;;;10.80;8.20;;;;;;;;;;4945930;28;20125;-64
2023/01/28 06:40:37;;;;;;;12.85;8.13;;;;;;;;;;4947101;28;20488;-68
2023/01/28 06:43:03;;;;;;;10.77;7.85;;;;;;;;;;4948631;28;20039;-64
2023/01/28 06:45:29;;;;;;;11.18;8.13;;;;;;;;;;4948416;28;20491;-63
2023/01/28 06:47:55;;;;;;;9.35;7.18;;;;;;;;;;4948004;28;20046;-63
2023/01/28 06:50:21;;;;;;;10.50;7.70;;;;;;;;;;4947991;28;20699;-63
2023/01/28 06:52:47;;;;;;;10.63;6.70;;;;;;;;;;4965741;28;20057;-63
2023/01/28 06:55:13;;;;;;;8.65;6.60;;;;;;;;;;4965296;28;20078;-70
2023/01/28 06:57:40;;;;;;;9.40;7.10;;;;;;;;;;4948635;28;20034;-64
2023/01/28 07:00:09;;;;;;;10.05;6.88;;;2.10;99.90;;;;;;4948062;28;20066;-62
2023/01/28 07:02:35;;;;;;;10.18;6.55;;;;;;;;;;4966166;28;20105;-63
2023/01/28 07:05:01;;;;;;;10.52;6.93;;;;;;;;;;4965647;28;20069;-62
2023/01/28 07:07:27;;;;;;;9.82;7.43;;;;;;;;;;4947791;28;20134;-62
2023/01/28 07:09:53;;;;;;;8.80;7.10;;;;;;;;;;4965519;28;20110;-62
2023/01/28 07:12:19;;;;;;;10.70;7.93;;;;;;;;;;4964742;28;20043;-62
2023/01/28 07:14:45;;;;;;;10.50;7.70;;;;;;;;;;4965410;28;20046;-63
2023/01/28 07:17:11;;;;;;;10.15;7.63;;;;;;;;;;4963268;28;20386;-63
2023/01/28 07:19:37;;;;;;;10.60;7.72;;;;;;;;;;4949906;28;20050;-62
2023/01/28 07:22:03;;;;;;;12.70;7.88;;;;;;;;;;4947474;28;20129;-62
2023/01/28 07:24:29;;;;;;;9.93;7.95;;;;;;;;;;4947672;28;20066;-63
2023/01/28 07:26:55;;;;;;;9.90;7.18;;;;;;;;;;4965592;28;20047;-64
2023/01/28 07:29:21;;;;;;;11.45;7.63;;;;;;;;;;4947733;28;20047;-65
2023/01/28 07:31:47;;;;;;;8.95;7.25;;;;;;;;;;4966928;28;20823;-64
2023/01/28 07:34:13;;;;;;;10.70;8.60;;;;;;;;;;4969295;28;20047;-66
2023/01/28 07:36:39;;;;;;;10.52;8.20;;;;;;;;;;4969303;28;20046;-65
2023/01/28 07:39:08;;;;;;;11.90;7.68;;;;;;;;;;4968744;28;20039;-65
2023/01/28 07:41:34;;;;;;;9.20;6.95;;;;;;;;;;4968885;28;20173;-66
2023/01/28 07:44:00;;;;;;;9.90;7.40;;;;;;;;;;4968819;28;20153;-66
2023/01/28 07:46:27;;;;;;;10.10;7.97;;;;;;;;;;4950849;28;20125;-66
2023/01/28 07:48:53;;;;;;;12.70;7.25;;;;;;;;;;4965594;28;20042;-67
2023/01/28 07:51:19;;;;;;;9.82;7.72;;;;;;;;;;4968214;28;20100;-66
2023/01/28 07:56:17;;;;;;;11.38;7.38;;;;;;;;;;5050552;23;20066;-66
2023/01/28 07:58:43;;;;;;;8.90;6.95;;;;;;;;;;4950648;28;20055;-63
2023/01/28 08:01:09;;;;;;;8.10;6.82;;;;;;;;;;4963676;28;20123;-65
2023/01/28 08:03:35;;;;;;;10.48;7.63;;;;;;;;;;4949962;28;20039;-67
2023/01/28 08:06:01;;;;;;;7.95;6.53;;;;;;;;;;4938955;28;20050;-66
2023/01/28 08:08:28;;;;;;;8.82;7.22;;;;;;;;;;4943013;28;20112;-66
2023/01/28 08:10:54;;;;;;;10.00;7.60;;;;;;;;;;4954727;28;20054;-66
2023/01/28 08:13:20;;;;;;;9.75;7.40;;;;;;;;;;4954498;28;20067;-66
2023/01/28 08:15:46;;;;;;;9.82;7.72;;;;;;;;;;4951735;28;20580;-64
2023/01/28 08:18:13;;;;;;;11.55;8.77;;;;;;;;;;4958948;28;20047;-64
2023/01/28 08:20:40;;;;;;;8.98;7.35;;;;;;;;;;4942865;28;20034;-64
2023/01/28 08:23:11;;;;;;;10.38;7.30;;;;;;;;;;4959713;28;20074;-63
2023/01/28 08:25:37;;;;;;;11.38;7.75;;;;;;;;;;4937799;28;20051;-63
2023/01/28 08:28:04;;;;;;;9.88;7.40;;;;;;;;;;4935960;28;20437;-64
2023/01/28 08:30:30;;;;;;;11.40;8.38;;;;;;;;;;4940163;28;20085;-64
2023/01/28 08:32:57;;;;;;;11.57;8.18;;;2.40;99.90;;;;;;4957811;28;20097;-64
2023/01/28 08:35:24;;;;;;;12.27;9.05;;;;;;;;;;4958344;28;20846;-64
2023/01/28 08:37:50;;;;;;;11.07;7.90;;;;;;;;;;4949397;28;20051;-64
2023/01/28 08:40:16;;;;;;;10.63;8.20;;;;;;;;;;4935954;28;20469;-65
2023/01/28 08:42:52;;;;;;;9.48;7.90;;;3.40;99.90;;;;;;4933086;28;20043;-65
2023/01/28 08:45:21;;;;;;;9.82;8.32;;;;;;;;;;4940038;28;20122;-65
2023/01/28 08:48:00;;;;;;;9.27;7.82;;;;;;;;;;4960548;28;20047;-66
2023/01/28 08:50:31;;;;;;;10.98;7.78;;;5.50;99.90;;;;;;4941775;28;20696;-65
2023/01/28 08:52:59;;;;;;;11.68;7.78;;;;;;;;;;4957630;28;20094;-62
2023/01/28 08:55:26;;;;;;;10.60;8.98;;;;;;;;;;4956492;28;20086;-64
2023/01/28 08:57:52;;;;;;;9.63;7.28;;;;;;;;;;4943876;28;20531;-65
2023/01/28 09:00:18;;;;;;;9.70;7.25;;;;;;;;;;4932873;28;20047;-64
2023/01/28 09:02:44;;;;;;;11.73;7.95;;;5.20;99.90;;;;;;4953383;28;20136;-64
2023/01/28 09:05:10;;;;;;;11.02;8.43;;;;;;;;;;4940884;28;20157;-64
2023/01/28 09:07:37;;;;;;;9.20;8.13;;;5.30;99.90;;;;;;4954744;28;20842;-64
2023/01/28 09:10:04;;;;;;;12.90;9.02;;;;;;;;;;4951140;28;20055;-64
2023/01/28 09:12:30;;;;;;;9.90;8.65;;;;;;;;;;4942860;28;20047;-64
2023/01/28 09:14:57;;;;;;;11.98;8.52;;;;;;;;;;4961172;28;20042;-64
2023/01/28 09:17:23;;;;;;;10.43;8.52;;;;;;;;;;4943849;28;20085;-64
2023/01/28 09:19:49;;;;;;;12.93;9.52;;;;;;;;;;4954821;28;20129;-64
2023/01/28 09:22:15;;;;;;;10.93;9.50;;;6.20;99.90;;;;;;4943989;28;20070;-61
2023/01/28 09:24:41;;;;;;;12.93;10.07;;;;;;;;;;4962247;28;20908;-63
2023/01/28 09:27:07;;;;;;;10.13;8.70;;;;;;;;;;4956779;28;20114;-62
2023/01/28 09:29:34;;;;;;;12.88;9.90;;;;;;;;;;4958977;28;20043;-62
2023/01/28 09:32:00;;;;;;;10.70;8.63;;;;;;;;;;4940312;28;20047;-63
2023/01/28 09:34:25;;;;;;;11.38;9.15;;;6.30;99.90;;;;;;4933744;28;20079;-62
2023/01/28 09:36:52;;;;;;;11.90;9.90;;;;;;;;;;4941432;28;20046;-64
2023/01/28 09:39:18;;;;;;;14.02;9.65;;;;;;;;;;4940929;28;20059;-62
2023/01/28 09:42:01;;;;;;;11.88;9.52;;;;;;;;;;4957624;28;20151;-62
2023/01/28 09:44:32;;;;;;;12.60;9.85;;;;;;;;;;4936888;28;20077;-64
2023/01/28 09:47:02;;;;;;;10.60;8.70;;;;;;;;;;4938533;28;20063;-62
2023/01/28 09:49:42;;;;;;;10.18;9.05;;;;;;;;;;4940828;28;20054;-63
2023/01/28 09:52:12;;;;;;;10.63;9.52;;;;;;;;;;4938948;28;20050;-65
2023/01/28 09:54:44;;;;;;;9.63;8.63;;;;;;;;;;4959506;28;20070;-62
2023/01/28 09:57:19;;;;;;;10.60;8.48;;;;;;;;;;4939630;28;20055;-62
2023/01/28 09:59:45;;;;;;;8.93;7.70;;;;;;;;;;4929937;28;20560;-63
2023/01/28 10:02:30;;;;;;;8.48;7.68;;;7.00;99.90;;;;;;4955786;28;20038;-63
2023/01/28 10:05:12;;;;;;;9.20;8.23;;;;;;;;;;4931521;28;20047;-63
2023/01/28 10:07:38;;;;;;;9.45;8.10;;;;;;;;;;4938149;28;20103;-63
2023/01/28 10:10:13;;;;;;;8.63;7.80;;;8.70;99.90;;;;;;4947104;28;20055;-63
2023/01/28 10:13:04;;;;;;;7.95;7.07;;;;;;;;;;4949810;28;20431;-63
2023/01/28 10:15:30;;;;;;;8.93;6.57;;;;;;;;;;4950048;28;20410;-63
2023/01/28 10:18:09;;;;;;;7.68;6.95;;;10.40;99.90;;;;;;4931324;28;20047;-63
2023/01/28 10:20:58;;;;;;;8.00;7.30;;;;;;;;;;4931066;28;20892;-64
2023/01/28 10:23:33;;;;;;;7.88;7.07;;;;;;;;;;4932788;29;20051;-64
2023/01/28 10:26:08;;;;;;;7.55;6.82;;;10.00;99.90;;;;;;4941844;28;20050;-65
2023/01/28 10:28:35;;;;;;;7.97;7.20;;;;;;;;;;4935606;28;20386;-62
2023/01/28 10:31:01;;;;;;;8.15;6.75;;;9.40;99.90;;;;;;4952158;28;20047;-63
2023/01/28 10:33:26;;;;;;;6.82;6.13;;;9.40;99.90;;;;;;4946181;28;20043;-63
2023/01/28 10:35:53;;;;;;;7.22;6.30;;;;;;;;;;4941811;28;20093;-63
2023/01/28 10:38:20;;;;;;;7.00;5.43;;;;;;;;;;4933230;28;20047;-62
2023/01/28 10:40:47;;;;;;;8.02;6.10;;;10.10;99.90;;;;;;4932175;28;20476;-62
2023/01/28 10:43:14;;;;;;;8.45;7.47;;;;;;;;;;4957001;28;20047;-63
2023/01/28 10:45:48;;;;;;;10.07;8.07;;;9.50;99.90;;;;;;4944113;28;20050;-63
2023/01/28 10:49:00;;;;;;;10.57;7.70;;;9.60;99.90;;;;;;4955228;28;20054;-63
2023/01/28 10:51:36;;;;;;;7.57;6.60;;;;;;;;;;4957171;28;20051;-64
2023/01/28 10:54:03;;;;;;;9.77;7.25;;;10.00;99.90;;;;;;4935286;28;20392;-64
2023/01/28 10:56:34;;;;;;;9.02;8.07;;;;;;;;;;4939662;28;20047;-64
2023/01/28 10:59:17;;;;;;;9.43;7.30;;;9.20;99.90;;;;;;4934296;28;20050;-64
2023/01/28 11:01:46;;;;;;;15.30;10.98;;;;;;;;;;4952077;28;20039;-64
2023/01/28 11:04:18;;;;;;;23.38;14.88;;;;;;;;;;4944194;28;20405;-63
2023/01/28 11:06:55;;;;;;;23.77;14.30;;;8.40;99.90;;;;;;4936841;28;20082;-63
2023/01/28 11:09:30;;;;;;;28.85;15.85;;;;;;;;;;4961061;28;20046;-64
2023/01/28 11:11:56;;;;;;;34.45;18.40;;;;;;;;;;4941389;28;20047;-64
2023/01/28 11:14:23;;;;;;;29.83;16.92;;;;;;;;;;4964416;28;20497;-64
2023/01/28 11:16:50;;;;;;;39.05;18.83;;;;;;;;;;4959508;28;20039;-64
2023/01/28 11:19:19;;;;;;;29.52;14.60;;;7.20;99.90;;;;;;4939519;28;20050;-64
2023/01/28 11:21:50;;;;;;;25.48;12.70;;;;;;;;;;4963507;28;20050;-63
2023/01/28 11:24:20;;;;;;;22.50;12.13;;;;;;;;;;4963487;28;20113;-64
2023/01/28 11:26:48;;;;;;;23.10;12.15;;;;;;;;;;4945994;28;20069;-64
2023/01/28 11:29:22;;;;;;;31.58;14.10;;;;;;;;;;4933432;28;20138;-64
2023/01/28 11:31:49;;;;;;;28.45;15.00;;;;;;;;;;4945856;28;20050;-65
2023/01/28 11:34:16;;;;;;;30.70;14.13;;;;;;;;;;4928692;28;20600;-64
2023/01/28 11:36:49;;;;;;;28.85;15.35;;;;;;;;;;4944766;28;20405;-64
2023/01/28 11:39:23;;;;;;;18.75;10.50;;;7.10;99.90;;;;;;4941108;28;20039;-64
2023/01/28 11:41:49;;;;;;;20.17;10.70;;;;;;;;;;4959096;28;20051;-66
2023/01/28 11:44:20;;;;;;;15.45;10.23;;;7.10;99.90;;;;;;4934790;28;20138;-67
2023/01/28 11:46:59;;;;;;;13.88;8.48;;;;;;;;;;4952009;28;20054;-63
2023/01/28 11:49:44;;;;;;;13.85;8.82;;;;;;;;;;4959432;28;20134;-66
2023/01/28 11:52:10;;;;;;;10.63;8.30;;;;;;;;;;4943592;28;20042;-65
2023/01/28 11:54:51;;;;;;;13.52;9.93;;;;;;;;;;4947673;28;20388;-65
2023/01/28 11:57:24;;;;;;;11.45;7.72;;;7.20;99.90;;;;;;4949154;28;20154;-65
2023/01/28 12:00:02;;;;;;;11.70;8.50;;;;;;;;;;4939313;29;20082;-65
2023/01/28 12:02:47;;;;;;;11.63;9.65;;;;;;;;;;4943981;28;20086;-64
2023/01/28 12:05:29;;;;;;;12.00;8.00;;;;;;;;;;4954512;28;20042;-64
2023/01/28 12:08:07;;;;;;;11.80;7.60;;;;;;;;;;4959359;28;20049;-64
2023/01/28 12:10:52;;;;;;;11.25;7.38;;;;;;;;;;4942901;28;20054;-65
2023/01/28 12:13:48;;;;;;;11.65;7.20;;;;;;;;;;4939885;28;20340;-65
2023/01/28 12:16:20;;;;;;;9.82;6.75;;;;;;;;;;4924717;28;20054;-63
2023/01/28 12:18:57;;;;;;;11.82;7.30;;;;;;;;;;4928986;28;20133;-62
2023/01/28 12:21:37;;;;;;;11.40;7.18;;;;;;;;;;4932491;28;20057;-64
2023/01/28 12:24:10;;;;;;;12.40;7.45;;;;;;;;;;4953269;28;20043;-65
2023/01/28 12:26:42;;;;;;;11.45;7.25;;;;;;;;;;4946334;28;20039;-67
2023/01/28 12:29:27;;;;;;;11.63;7.35;;;;;;;;;;4946179;28;20047;-65
2023/01/28 12:32:27;;;;;;;15.23;7.78;;;;;;;;;;4958265;28;20082;-66
2023/01/28 12:35:23;;;;;;;12.02;7.10;;;;;;;;;;4924078;28;20117;-67
2023/01/28 12:37:55;;;;;;;12.27;7.30;;;;;;;;;;4918348;28;20063;-64
2023/01/28 12:40:21;;;;;;;13.63;8.55;;;;;;;;;;4944137;28;20393;-65
2023/01/28 12:42:59;;;;;;;13.43;7.90;;;;;;;;;;4937170;28;20050;-65
2023/01/28 12:45:44;;;;;;;13.43;7.93;;;;;;;;;;4937630;28;20054;-64
2023/01/28 12:48:17;;;;;;;14.93;8.32;;;;;;;;;;4958982;28;20039;-64
2023/01/28 12:50:49;;;;;;;11.75;7.18;;;;;;;;;;4948959;28;20055;-64
2023/01/28 12:53:34;;;;;;;13.20;7.68;;;;;;;;;;4942831;28;20085;-63
2023/01/28 12:56:05;;;;;;;9.50;6.90;;;;;;;;;;4940039;28;20540;-64
2023/01/28 12:58:53;;;;;;;9.95;6.40;;;;;;;;;;4947627;28;20449;-66
2023/01/28 13:01:23;;;;;;;9.13;6.30;;;;;;;;;;4938549;28;20109;-67
2023/01/28 13:03:56;;;;;;;9.30;6.22;;;;;;;;;;4943441;28;20061;-67
2023/01/28 13:06:35;;;;;;;8.27;5.68;;;;;;;;;;4940978;28;20073;-67
2023/01/28 13:09:10;;;;;;;7.05;5.40;;;;;;;;;;4946750;28;20042;-67
2023/01/28 13:11:36;;;;;;;8.25;5.47;;;;;;;;;;4934546;28;20050;-67
2023/01/28 13:14:03;;;;;;;7.93;6.07;;;13.60;99.90;;;;;;4937819;28;20118;-66
2023/01/28 13:16:29;;;;;;;6.13;5.28;;;;;;;;;;4955409;28;20046;-64
2023/01/28 13:19:06;;;;;;;6.47;5.32;;;13.30;99.90;;;;;;4937801;28;20043;-63
2023/01/28 13:21:33;;;;;;;6.93;5.53;;;;;;;;;;4932762;28;20154;-63
2023/01/28 13:24:18;;;;;;;12.10;6.95;;;;;;;;;;4940623;28;20054;-63
2023/01/28 13:26:45;;;;;;;10.23;6.00;;;11.90;99.90;;;;;;4956454;28;20050;-63
2023/01/28 13:29:13;;;;;;;9.82;6.93;;;12.20;99.90;;;;;;4940118;28;20047;-64
2023/01/28 13:31:45;;;;;;;9.68;7.07;;;12.40;99.90;;;;;;4941821;28;20425;-63
2023/01/28 13:34:31;;;;;;;9.20;6.70;;;;;;;;;;4943722;28;20126;-65
2023/01/28 13:36:58;;;;;;;12.85;7.55;;;;;;;;;;4945253;28;20050;-63
2023/01/28 13:39:25;;;;;;;8.25;6.35;;;;;;;;;;4942299;28;20062;-64
2023/01/28 13:42:28;;;;;;;11.52;6.70;;;9.90;99.90;;;;;;4937547;28;20058;-64
2023/01/28 13:44:54;;;;;;;11.00;6.10;;;;;;;;;;4921515;29;20091;-64
2023/01/28 13:47:30;;;;;;;12.70;6.82;;;;;;;;;;4940330;28;20507;-64
2023/01/28 13:50:02;;;;;;;12.65;7.45;;;;;;;;;;4960853;28;20523;-63
2023/01/28 13:52:28;;;;;;;12.32;7.30;;;;;;;;;;4942937;28;20045;-67
2023/01/28 13:54:56;;;;;;;10.50;6.40;;;;;;;;;;4944942;28;20062;-66
2023/01/28 13:57:43;;;;;;;9.30;6.82;;;;;;;;;;4959614;28;20461;-67
2023/01/28 14:00:19;;;;;;;12.27;6.80;;;;;;;;;;4955689;28;20445;-65
2023/01/28 14:02:57;;;;;;;8.85;6.60;;;;;;;;;;4957615;28;20522;-68
2023/01/28 14:05:42;;;;;;;11.07;6.68;;;;;;;;;;4946912;28;20117;-67
2023/01/28 14:08:24;;;;;;;9.53;6.20;;;;;;;;;;4938703;28;20047;-66
2023/01/28 14:11:15;;;;;;;8.23;5.97;;;7.40;99.90;;;;;;4947055;28;20527;-65
2023/01/28 14:13:47;;;;;;;8.63;5.90;;;;;;;;;;4940008;28;20046;-69
2023/01/28 14:16:32;;;;;;;7.80;5.65;;;;;;;;;;4943079;28;20462;-69
2023/01/28 14:19:00;;;;;;;10.17;5.80;;;7.20;99.90;;;;;;4949217;28;20390;-69
2023/01/28 14:21:27;;;;;;;7.90;5.22;;;;;;;;;;4958402;28;20281;-68
2023/01/28 14:23:56;;;;;;;7.22;5.10;;;7.20;99.90;;;;;;4938495;28;20083;-69
2023/01/28 14:26:25;;;;;;;9.18;6.05;;;;;;;;;;4917476;28;20054;-68
2023/01/28 14:29:03;;;;;;;12.15;6.50;;;;;;;;;;4956713;28;20489;-66
2023/01/28 14:31:32;;;;;;;9.70;6.32;;;;;;;;;;4943357;28;20405;-67
2023/01/28 14:34:21;;;;;;;11.07;6.55;;;6.80;99.90;;;;;;4941975;28;20084;-69
2023/01/28 14:36:47;;;;;;;9.05;6.28;;;;;;;;;;4942733;28;20397;-66
2023/01/28 14:39:21;;;;;;;11.35;6.38;;;;;;;;;;4937192;28;20061;-66
2023/01/28 14:41:49;;;;;;;9.32;5.85;;;6.50;99.90;;;;;;4940622;28;20043;-66
2023/01/28 14:44:37;;;;;;;11.90;6.60;;;6.80;99.90;;;;;;4938771;28;20045;-65
2023/01/28 14:47:22;;;;;;;7.85;5.30;;;;;;;;;;4948894;28;20051;-68
2023/01/28 14:49:51;;;;;;;8.90;5.70;;;;;;;;;;4949653;28;20408;-66
2023/01/28 14:52:36;;;;;;;9.27;5.40;;;6.70;99.90;;;;;;4944088;28;20409;-64
2023/01/28 14:55:15;;;;;;;9.17;5.27;;;;;;;;;;4924621;28;20527;-64
2023/01/28 14:57:48;;;;;;;9.60;5.63;;;;;;;;;;4937471;28;20803;-64
2023/01/28 15:00:34;;;;;;;9.40;5.68;;;;;;;;;;4953744;28;20050;-65
2023/01/28 15:03:08;;;;;;;9.70;5.45;;;;;;;;;;4956020;28;20101;-63
2023/01/28 15:05:33;;;;;;;7.75;4.82;;;;;;;;;;4958679;28;20055;-63